map of HTA home
HTA - Airport
Location
City:  Chita, Zabaykal'skiy, Russian Federation (Russia)
Name:Kadala Airport
ICAO:UIAA
IATA:HTA

Details
Type:Airport (Aerodrome, Airfield)
Use:Public/Civil, International (customs port of entry)
Latitude:5202'N (52.027)
Longitude:11318'E (113.305)
Elevation:2272 ft (693 m)
Variation:8.52W (WMM2015 magnetic declination)
-0.07 annual change
Runways:1
Longest:9186 × 184 ft (2800 × 56 m), paved

Time
Time Zone:UTC+9 (DST+10)

Weather
METAR:UIAA 180430Z 08002MPS 9000 NSC M18/M22 Q1019 R29/410150 NOSIG RMK QFE705/0941
TAF:UIAA 180200Z 1803/1903 29003G08MPS 9999 NSC= TAF UIBB 180200Z 1803/1903 26005MPS 6000 -SN BKN011
TEMPO 1803/1815 1900 SN VV006

Related Locations
Nearby:
Farthest:RGL: 12321 mi / 19830 km
Rio Gallegos, Z, AR

Find:

   beyond  
but within

Other Information
Maps:
NOTAMs:
Links:
Sources:

  
  • flag of Russian Federation (Russia)
  • flag of Zabaykal'skiy
  

Airport Diagram

Airport diagram for HTA

Larger airport diagram from AIP of the Russian Federation

Sectional Chart

Flight Planning
at skyvector.com

Satellite Image

Google Maps Satellite view

Yandex Maps Satellite view


 

Copyright © 2004-2019 Karl L. Swartz. All rights reserved.
The Great Circle Mapper name and logo are trademarks of the Great Circle Mapper.
All other trademarks mentioned herein belong to their respective owners.
Please see credits for attibutions and further copyright information.

  Follow gcmap on Facebook Follow gcmap on Twitter Follow gcmap on Google+ GCmap on LinkedIn

hCard Microformat

Geo Microformat